sensor_id;sensor_type;location;lat;lon;timestamp;pressure;altitude;pressure_sealevel;temperature;humidity
37832;BME280;23671;38.090;-122.570;2023-07-16T00:02:06;100895.69;;;32.09;42.44
37832;BME280;23671;38.090;-122.570;2023-07-16T00:04:33;100884.78;;;32.09;42.41
37832;BME280;23671;38.090;-122.570;2023-07-16T00:07:01;100897.09;;;32.11;42.43
37832;BME280;23671;38.090;-122.570;2023-07-16T00:09:28;100896.06;;;32.17;42.56
37832;BME280;23671;38.090;-122.570;2023-07-16T00:11:56;100898.50;;;32.14;42.63
37832;BME280;23671;38.090;-122.570;2023-07-16T00:14:29;100908.41;;;32.20;42.75
37832;BME280;23671;38.090;-122.570;2023-07-16T00:16:56;100899.38;;;32.19;42.43
37832;BME280;23671;38.090;-122.570;2023-07-16T00:19:23;100900.78;;;32.22;42.64
37832;BME280;23671;38.090;-122.570;2023-07-16T00:21:50;100897.78;;;32.24;42.46
37832;BME280;23671;38.090;-122.570;2023-07-16T00:24:17;100894.78;;;32.25;42.58
37832;BME280;23671;38.090;-122.570;2023-07-16T00:26:44;100896.44;;;32.26;42.63
37832;BME280;23671;38.090;-122.570;2023-07-16T00:29:11;100892.03;;;32.25;42.25
37832;BME280;23671;38.090;-122.570;2023-07-16T00:31:38;100889.88;;;32.27;42.72
37832;BME280;23671;38.090;-122.570;2023-07-16T00:34:05;100881.66;;;32.27;42.56
37832;BME280;23671;38.090;-122.570;2023-07-16T00:36:32;100888.53;;;32.30;42.49
37832;BME280;23671;38.090;-122.570;2023-07-16T00:38:59;100886.31;;;32.27;42.36
37832;BME280;23671;38.090;-122.570;2023-07-16T00:41:26;100893.19;;;32.29;42.46
37832;BME280;23671;38.090;-122.570;2023-07-16T00:43:53;100883.88;;;32.30;42.77
37832;BME280;23671;38.090;-122.570;2023-07-16T00:46:21;100886.38;;;32.32;42.28
37832;BME280;23671;38.090;-122.570;2023-07-16T00:48:48;100880.34;;;32.30;42.52
37832;BME280;23671;38.090;-122.570;2023-07-16T00:51:15;100876.25;;;32.32;42.66
37832;BME280;23671;38.090;-122.570;2023-07-16T00:53:43;100876.25;;;32.32;42.45
37832;BME280;23671;38.090;-122.570;2023-07-16T00:56:11;100871.59;;;32.33;42.57
37832;BME280;23671;38.090;-122.570;2023-07-16T00:58:38;100878.72;;;32.34;42.38
37832;BME280;23671;38.090;-122.570;2023-07-16T01:01:05;100874.91;;;32.35;42.59
37832;BME280;23671;38.090;-122.570;2023-07-16T01:03:32;100859.84;;;32.32;42.30
37832;BME280;23671;38.090;-122.570;2023-07-16T01:06:22;100866.44;;;32.36;42.28
37832;BME280;23671;38.090;-122.570;2023-07-16T01:09:06;100859.34;;;32.35;42.35
37832;BME280;23671;38.090;-122.570;2023-07-16T01:11:35;100862.06;;;32.35;42.07
37832;BME280;23671;38.090;-122.570;2023-07-16T01:14:03;100861.22;;;32.35;42.17
37832;BME280;23671;38.090;-122.570;2023-07-16T01:16:32;100850.28;;;32.35;42.40
37832;BME280;23671;38.090;-122.570;2023-07-16T01:18:59;100847.56;;;32.35;42.31
37832;BME280;23671;38.090;-122.570;2023-07-16T01:21:34;100856.34;;;32.37;41.94
37832;BME280;23671;38.090;-122.570;2023-07-16T01:32:12;100853.88;;;32.35;42.03
37832;BME280;23671;38.090;-122.570;2023-07-16T01:34:39;100847.06;;;32.38;41.39
37832;BME280;23671;38.090;-122.570;2023-07-16T01:37:07;100851.69;;;32.37;41.88
37832;BME280;23671;38.090;-122.570;2023-07-16T01:39:34;100856.34;;;32.37;41.86
37832;BME280;23671;38.090;-122.570;2023-07-16T01:42:02;100843.50;;;32.37;41.60
37832;BME280;23671;38.090;-122.570;2023-07-16T01:44:29;100848.41;;;32.35;41.73
37832;BME280;23671;38.090;-122.570;2023-07-16T01:49:35;100831.13;;;32.30;41.36
37832;BME280;23671;38.090;-122.570;2023-07-16T01:52:03;100835.22;;;32.32;40.98
37832;BME280;23671;38.090;-122.570;2023-07-16T01:54:30;100833.88;;;32.30;40.89
37832;BME280;23671;38.090;-122.570;2023-07-16T01:56:58;100830.56;;;32.28;41.16
37832;BME280;23671;38.090;-122.570;2023-07-16T01:59:25;100838.47;;;32.24;41.22
37832;BME280;23671;38.090;-122.570;2023-07-16T02:01:52;100829.72;;;32.22;41.03
37832;BME280;23671;38.090;-122.570;2023-07-16T02:04:19;100838.97;;;32.21;41.14
37832;BME280;23671;38.090;-122.570;2023-07-16T02:06:46;100835.94;;;32.17;40.92
37832;BME280;23671;38.090;-122.570;2023-07-16T02:09:14;100841.13;;;32.19;40.55
37832;BME280;23671;38.090;-122.570;2023-07-16T02:11:41;100841.94;;;32.14;40.65
37832;BME280;23671;38.090;-122.570;2023-07-16T02:14:09;100845.19;;;32.11;40.49
37832;BME280;23671;38.090;-122.570;2023-07-16T02:16:36;100845.94;;;32.07;40.13
37832;BME280;23671;38.090;-122.570;2023-07-16T02:19:03;100849.78;;;32.06;40.27
37832;BME280;23671;38.090;-122.570;2023-07-16T02:21:30;100844.00;;;32.02;40.03
37832;BME280;23671;38.090;-122.570;2023-07-16T02:23:57;100842.88;;;31.98;40.31
37832;BME280;23671;38.090;-122.570;2023-07-16T02:26:24;100848.84;;;31.95;40.40
37832;BME280;23671;38.090;-122.570;2023-07-16T02:28:51;100850.94;;;31.88;40.12
37832;BME280;23671;38.090;-122.570;2023-07-16T02:31:18;100844.91;;;31.86;40.20
37832;BME280;23671;38.090;-122.570;2023-07-16T02:33:45;100850.63;;;31.85;40.00
37832;BME280;23671;38.090;-122.570;2023-07-16T02:36:13;100850.06;;;31.83;40.20
37832;BME280;23671;38.090;-122.570;2023-07-16T02:38:40;100845.88;;;31.75;40.17
37832;BME280;23671;38.090;-122.570;2023-07-16T02:41:07;100847.78;;;31.75;40.23
37832;BME280;23671;38.090;-122.570;2023-07-16T02:43:34;100844.75;;;31.71;40.28
37832;BME280;23671;38.090;-122.570;2023-07-16T02:46:01;100846.34;;;31.67;40.34
37832;BME280;23671;38.090;-122.570;2023-07-16T02:48:29;100847.09;;;31.63;40.24
37832;BME280;23671;38.090;-122.570;2023-07-16T02:50:56;100853.09;;;31.60;40.39
37832;BME280;23671;38.090;-122.570;2023-07-16T02:53:23;100850.03;;;31.56;40.38
37832;BME280;23671;38.090;-122.570;2023-07-16T02:55:50;100849.41;;;31.49;40.40
37832;BME280;23671;38.090;-122.570;2023-07-16T02:58:17;100845.78;;;31.44;40.43
37832;BME280;23671;38.090;-122.570;2023-07-16T03:00:44;100850.94;;;31.40;40.32
37832;BME280;23671;38.090;-122.570;2023-07-16T03:03:11;100847.03;;;31.36;40.25
37832;BME280;23671;38.090;-122.570;2023-07-16T03:05:38;100846.97;;;31.31;40.12
37832;BME280;23671;38.090;-122.570;2023-07-16T03:08:05;100854.84;;;31.27;40.20
37832;BME280;23671;38.090;-122.570;2023-07-16T03:10:32;100851.47;;;31.20;40.16
37832;BME280;23671;38.090;-122.570;2023-07-16T03:12:59;100847.28;;;31.13;40.06
37832;BME280;23671;38.090;-122.570;2023-07-16T03:15:26;100850.28;;;31.11;40.23
37832;BME280;23671;38.090;-122.570;2023-07-16T03:17:56;100852.09;;;31.06;40.12
37832;BME280;23671;38.090;-122.570;2023-07-16T03:20:23;100851.22;;;31.00;40.23
37832;BME280;23671;38.090;-122.570;2023-07-16T03:22:51;100855.22;;;30.93;39.83
37832;BME280;23671;38.090;-122.570;2023-07-16T03:25:18;100853.81;;;30.90;39.76
37832;BME280;23671;38.090;-122.570;2023-07-16T03:27:45;100849.59;;;30.83;39.56
37832;BME280;23671;38.090;-122.570;2023-07-16T03:30:12;100845.13;;;30.77;39.29
37832;BME280;23671;38.090;-122.570;2023-07-16T03:32:39;100850.50;;;30.72;39.35
37832;BME280;23671;38.090;-122.570;2023-07-16T03:35:06;100854.81;;;30.68;39.40
37832;BME280;23671;38.090;-122.570;2023-07-16T03:37:33;100853.38;;;30.65;39.03
37832;BME280;23671;38.090;-122.570;2023-07-16T03:40:14;100851.91;;;30.58;39.19
37832;BME280;23671;38.090;-122.570;2023-07-16T03:42:41;100851.59;;;30.54;39.05
37832;BME280;23671;38.090;-122.570;2023-07-16T03:45:09;100842.16;;;30.45;38.93
37832;BME280;23671;38.090;-122.570;2023-07-16T03:47:40;100855.13;;;30.38;39.16
37832;BME280;23671;38.090;-122.570;2023-07-16T03:50:07;100858.59;;;30.33;39.11
37832;BME280;23671;38.090;-122.570;2023-07-16T03:52:35;100862.34;;;30.27;38.97
37832;BME280;23671;38.090;-122.570;2023-07-16T03:55:02;100859.72;;;30.21;39.05
37832;BME280;23671;38.090;-122.570;2023-07-16T03:57:29;100861.78;;;30.14;38.94
37832;BME280;23671;38.090;-122.570;2023-07-16T03:59:56;100864.41;;;30.09;38.52
37832;BME280;23671;38.090;-122.570;2023-07-16T04:02:25;100868.09;;;30.03;38.78
37832;BME280;23671;38.090;-122.570;2023-07-16T04:04:51;100865.88;;;30.00;38.94
37832;BME280;23671;38.090;-122.570;2023-07-16T04:07:19;100872.81;;;29.91;38.89
37832;BME280;23671;38.090;-122.570;2023-07-16T04:09:46;100883.00;;;29.84;38.89
37832;BME280;23671;38.090;-122.570;2023-07-16T04:12:13;100884.56;;;29.80;38.84
37832;BME280;23671;38.090;-122.570;2023-07-16T04:14:40;100884.13;;;29.71;39.09
37832;BME280;23671;38.090;-122.570;2023-07-16T04:17:07;100888.38;;;29.67;38.95
37832;BME280;23671;38.090;-122.570;2023-07-16T04:19:34;100886.53;;;29.56;39.24
37832;BME280;23671;38.090;-122.570;2023-07-16T04:22:02;100889.97;;;29.51;39.09
37832;BME280;23671;38.090;-122.570;2023-07-16T04:24:29;100889.50;;;29.43;38.92
37832;BME280;23671;38.090;-122.570;2023-07-16T04:26:57;100903.50;;;29.35;39.17
37832;BME280;23671;38.090;-122.570;2023-07-16T04:29:24;100898.16;;;29.28;39.35
37832;BME280;23671;38.090;-122.570;2023-07-16T04:31:51;100911.69;;;29.23;39.15
37832;BME280;23671;38.090;-122.570;2023-07-16T04:34:18;100917.47;;;29.15;39.24
37832;BME280;23671;38.090;-122.570;2023-07-16T04:36:45;100917.81;;;29.07;39.20
37832;BME280;23671;38.090;-122.570;2023-07-16T04:39:12;100923.34;;;29.01;39.34
37832;BME280;23671;38.090;-122.570;2023-07-16T04:41:39;100915.78;;;28.91;39.35
37832;BME280;23671;38.090;-122.570;2023-07-16T04:44:06;100924.88;;;28.85;38.93
37832;BME280;23671;38.090;-122.570;2023-07-16T04:46:33;100924.41;;;28.77;39.03
37832;BME280;23671;38.090;-122.570;2023-07-16T04:49:01;100924.53;;;28.70;38.98
37832;BME280;23671;38.090;-122.570;2023-07-16T04:51:28;100921.09;;;28.63;38.75
37832;BME280;23671;38.090;-122.570;2023-07-16T04:53:58;100919.78;;;28.54;39.27
37832;BME280;23671;38.090;-122.570;2023-07-16T04:56:25;100928.59;;;28.49;38.91
37832;BME280;23671;38.090;-122.570;2023-07-16T04:58:52;100934.34;;;28.41;38.85
37832;BME280;23671;38.090;-122.570;2023-07-16T05:01:19;100925.25;;;28.36;38.64
37832;BME280;23671;38.090;-122.570;2023-07-16T05:03:47;100928.28;;;28.28;38.80
37832;BME280;23671;38.090;-122.570;2023-07-16T05:06:14;100934.41;;;28.23;38.78
37832;BME280;23671;38.090;-122.570;2023-07-16T05:08:41;100924.94;;;28.14;38.66
37832;BME280;23671;38.090;-122.570;2023-07-16T05:11:08;100925.06;;;28.08;38.95
37832;BME280;23671;38.090;-122.570;2023-07-16T05:13:35;100924.66;;;28.04;39.07
37832;BME280;23671;38.090;-122.570;2023-07-16T05:16:02;100927.84;;;28.01;38.79
37832;BME280;23671;38.090;-122.570;2023-07-16T05:18:29;100929.22;;;27.92;38.86
37832;BME280;23671;38.090;-122.570;2023-07-16T05:20:56;100925.28;;;27.88;39.05
37832;BME280;23671;38.090;-122.570;2023-07-16T05:23:23;100928.09;;;27.81;39.01
37832;BME280;23671;38.090;-122.570;2023-07-16T05:25:50;100938.22;;;27.74;38.68
37832;BME280;23671;38.090;-122.570;2023-07-16T05:28:19;100933.09;;;27.66;38.85
37832;BME280;23671;38.090;-122.570;2023-07-16T05:30:46;100937.31;;;27.62;39.21
37832;BME280;23671;38.090;-122.570;2023-07-16T05:33:13;100938.22;;;27.56;38.86
37832;BME280;23671;38.090;-122.570;2023-07-16T05:35:40;100936.25;;;27.45;38.90
37832;BME280;23671;38.090;-122.570;2023-07-16T05:38:07;100934.69;;;27.38;39.00
37832;BME280;23671;38.090;-122.570;2023-07-16T05:40:34;100940.97;;;27.32;38.92
37832;BME280;23671;38.090;-122.570;2023-07-16T05:43:02;100940.66;;;27.22;38.97
37832;BME280;23671;38.090;-122.570;2023-07-16T05:45:29;100945.09;;;27.16;39.02
37832;BME280;23671;38.090;-122.570;2023-07-16T05:47:56;100941.81;;;27.08;39.03
37832;BME280;23671;38.090;-122.570;2023-07-16T05:50:23;100946.09;;;26.97;39.02
37832;BME280;23671;38.090;-122.570;2023-07-16T05:52:50;100945.94;;;26.92;39.31
37832;BME280;23671;38.090;-122.570;2023-07-16T05:55:18;100947.03;;;26.84;39.05
37832;BME280;23671;38.090;-122.570;2023-07-16T05:57:45;100947.72;;;26.80;38.90
37832;BME280;23671;38.090;-122.570;2023-07-16T06:00:13;100954.03;;;26.74;39.10
37832;BME280;23671;38.090;-122.570;2023-07-16T06:02:40;100950.31;;;26.62;39.14
37832;BME280;23671;38.090;-122.570;2023-07-16T06:05:08;100951.81;;;26.58;39.25
37832;BME280;23671;38.090;-122.570;2023-07-16T06:07:35;100947.28;;;26.52;39.09
37832;BME280;23671;38.090;-122.570;2023-07-16T06:10:02;100942.94;;;26.44;39.28
37832;BME280;23671;38.090;-122.570;2023-07-16T06:12:29;100946.13;;;26.41;39.52
37832;BME280;23671;38.090;-122.570;2023-07-16T06:14:56;100952.63;;;26.34;39.31
37832;BME280;23671;38.090;-122.570;2023-07-16T06:17:26;100953.50;;;26.28;39.46
37832;BME280;23671;38.090;-122.570;2023-07-16T06:19:53;100952.72;;;26.21;39.39
37832;BME280;23671;38.090;-122.570;2023-07-16T06:22:20;100948.56;;;26.12;39.28
37832;BME280;23671;38.090;-122.570;2023-07-16T06:24:47;100949.44;;;26.05;39.52
37832;BME280;23671;38.090;-122.570;2023-07-16T06:27:14;100954.44;;;26.02;39.50
37832;BME280;23671;38.090;-122.570;2023-07-16T06:29:41;100949.06;;;25.95;39.23
37832;BME280;23671;38.090;-122.570;2023-07-16T06:32:09;100951.56;;;25.90;39.50
37832;BME280;23671;38.090;-122.570;2023-07-16T06:34:36;100953.91;;;25.80;39.54
37832;BME280;23671;38.090;-122.570;2023-07-16T06:37:03;100962.47;;;25.77;39.69
37832;BME280;23671;38.090;-122.570;2023-07-16T06:39:31;100963.53;;;25.70;39.45
37832;BME280;23671;38.090;-122.570;2023-07-16T06:41:58;100967.09;;;25.64;39.76
37832;BME280;23671;38.090;-122.570;2023-07-16T06:44:25;100957.75;;;25.53;39.79
37832;BME280;23671;38.090;-122.570;2023-07-16T06:50:35;100973.34;;;25.38;39.73
37832;BME280;23671;38.090;-122.570;2023-07-16T06:53:21;100983.56;;;25.30;40.08
37832;BME280;23671;38.090;-122.570;2023-07-16T06:55:50;100972.34;;;25.19;39.92
37832;BME280;23671;38.090;-122.570;2023-07-16T06:58:18;100990.88;;;25.16;40.08
37832;BME280;23671;38.090;-122.570;2023-07-16T07:00:45;100972.56;;;25.05;40.18
37832;BME280;23671;38.090;-122.570;2023-07-16T07:03:12;100978.81;;;24.99;40.08
37832;BME280;23671;38.090;-122.570;2023-07-16T07:05:47;100973.00;;;24.89;40.32
37832;BME280;23671;38.090;-122.570;2023-07-16T07:08:17;100965.31;;;24.86;40.33
37832;BME280;23671;38.090;-122.570;2023-07-16T07:10:44;100969.25;;;24.77;40.03
37832;BME280;23671;38.090;-122.570;2023-07-16T07:13:11;100973.41;;;24.73;40.39
37832;BME280;23671;38.090;-122.570;2023-07-16T07:15:38;100976.09;;;24.66;40.39
37832;BME280;23671;38.090;-122.570;2023-07-16T07:18:05;100967.97;;;24.60;40.64
37832;BME280;23671;38.090;-122.570;2023-07-16T07:20:32;100966.72;;;24.56;40.53
37832;BME280;23671;38.090;-122.570;2023-07-16T07:22:59;100969.41;;;24.49;40.44
37832;BME280;23671;38.090;-122.570;2023-07-16T07:25:29;100967.72;;;24.42;40.71
37832;BME280;23671;38.090;-122.570;2023-07-16T07:27:56;100966.47;;;24.38;40.54
37832;BME280;23671;38.090;-122.570;2023-07-16T07:30:23;100970.19;;;24.30;40.65
37832;BME280;23671;38.090;-122.570;2023-07-16T07:32:50;100976.22;;;24.25;40.78
37832;BME280;23671;38.090;-122.570;2023-07-16T07:35:17;100973.28;;;24.20;41.00
37832;BME280;23671;38.090;-122.570;2023-07-16T07:37:44;100974.09;;;24.14;40.90
37832;BME280;23671;38.090;-122.570;2023-07-16T07:40:11;100969.13;;;24.11;40.83
37832;BME280;23671;38.090;-122.570;2023-07-16T07:42:38;100970.97;;;24.04;41.04
37832;BME280;23671;38.090;-122.570;2023-07-16T07:45:06;100958.25;;;23.98;41.18
37832;BME280;23671;38.090;-122.570;2023-07-16T07:47:33;100963.22;;;23.95;41.02
37832;BME280;23671;38.090;-122.570;2023-07-16T07:50:00;100964.84;;;23.89;41.08
37832;BME280;23671;38.090;-122.570;2023-07-16T07:52:28;100973.56;;;23.85;41.05
37832;BME280;23671;38.090;-122.570;2023-07-16T07:54:55;100962.72;;;23.78;41.24
37832;BME280;23671;38.090;-122.570;2023-07-16T07:57:22;100966.66;;;23.76;41.10
37832;BME280;23671;38.090;-122.570;2023-07-16T07:59:49;100964.78;;;23.70;41.37
37832;BME280;23671;38.090;-122.570;2023-07-16T08:02:18;100967.84;;;23.67;41.33
37832;BME280;23671;38.090;-122.570;2023-07-16T08:04:47;100958.06;;;23.59;41.39
37832;BME280;23671;38.090;-122.570;2023-07-16T08:07:14;100961.38;;;23.55;41.41
37832;BME280;23671;38.090;-122.570;2023-07-16T08:09:41;100956.16;;;23.47;41.34
37832;BME280;23671;38.090;-122.570;2023-07-16T08:12:08;100963.59;;;23.44;41.37
37832;BME280;23671;38.090;-122.570;2023-07-16T08:14:35;100962.53;;;23.39;41.48
37832;BME280;23671;38.090;-122.570;2023-07-16T08:17:03;100959.59;;;23.34;41.55
37832;BME280;23671;38.090;-122.570;2023-07-16T08:19:30;100961.66;;;23.32;41.44
37832;BME280;23671;38.090;-122.570;2023-07-16T08:21:57;100962.41;;;23.26;41.55
37832;BME280;23671;38.090;-122.570;2023-07-16T08:24:25;100959.47;;;23.21;41.61
37832;BME280;23671;38.090;-122.570;2023-07-16T08:26:52;100959.25;;;23.16;41.59
37832;BME280;23671;38.090;-122.570;2023-07-16T08:29:19;100959.84;;;23.11;41.74
37832;BME280;23671;38.090;-122.570;2023-07-16T08:31:46;100950.69;;;23.06;41.80
37832;BME280;23671;38.090;-122.570;2023-07-16T08:34:13;100951.91;;;23.03;41.67
37832;BME280;23671;38.090;-122.570;2023-07-16T08:36:40;100964.28;;;22.98;41.77
37832;BME280;23671;38.090;-122.570;2023-07-16T08:39:09;100963.22;;;22.92;41.79
37832;BME280;23671;38.090;-122.570;2023-07-16T08:41:36;100958.03;;;22.91;41.90
37832;BME280;23671;38.090;-122.570;2023-07-16T08:44:03;100955.06;;;22.86;42.04
37832;BME280;23671;38.090;-122.570;2023-07-16T08:46:30;100956.25;;;22.77;42.01
37832;BME280;23671;38.090;-122.570;2023-07-16T08:48:58;100955.59;;;22.75;41.96
37832;BME280;23671;38.090;-122.570;2023-07-16T08:51:26;100948.09;;;22.70;42.02
37832;BME280;23671;38.090;-122.570;2023-07-16T08:53:53;100951.41;;;22.66;42.06
37832;BME280;23671;38.090;-122.570;2023-07-16T08:56:20;100951.75;;;22.63;42.13
37832;BME280;23671;38.090;-122.570;2023-07-16T08:58:48;100952.69;;;22.55;42.09
37832;BME280;23671;38.090;-122.570;2023-07-16T09:01:15;100958.28;;;22.53;42.12
37832;BME280;23671;38.090;-122.570;2023-07-16T09:03:44;100946.03;;;22.51;42.27
37832;BME280;23671;38.090;-122.570;2023-07-16T09:06:13;100950.53;;;22.44;42.24
37832;BME280;23671;38.090;-122.570;2023-07-16T09:08:40;100944.88;;;22.39;42.42
37832;BME280;23671;38.090;-122.570;2023-07-16T09:11:11;100943.63;;;22.35;42.43
37832;BME280;23671;38.090;-122.570;2023-07-16T09:13:44;100948.38;;;22.33;42.45
37832;BME280;23671;38.090;-122.570;2023-07-16T09:16:11;100944.56;;;22.27;42.49
37832;BME280;23671;38.090;-122.570;2023-07-16T09:18:40;100944.09;;;22.24;42.53
37832;BME280;23671;38.090;-122.570;2023-07-16T09:21:08;100942.47;;;22.23;42.57
37832;BME280;23671;38.090;-122.570;2023-07-16T09:23:35;100949.44;;;22.17;42.54
37832;BME280;23671;38.090;-122.570;2023-07-16T09:26:03;100944.41;;;22.14;42.51
37832;BME280;23671;38.090;-122.570;2023-07-16T09:28:34;100947.69;;;22.10;42.70
37832;BME280;23671;38.090;-122.570;2023-07-16T09:31:08;100946.22;;;22.07;42.64
37832;BME280;23671;38.090;-122.570;2023-07-16T09:33:35;100941.41;;;22.03;42.77
37832;BME280;23671;38.090;-122.570;2023-07-16T09:36:03;100939.28;;;21.98;42.88
37832;BME280;23671;38.090;-122.570;2023-07-16T09:38:31;100942.53;;;21.94;42.91
37832;BME280;23671;38.090;-122.570;2023-07-16T09:41:00;100939.41;;;21.90;42.95
37832;BME280;23671;38.090;-122.570;2023-07-16T09:43:29;100940.81;;;21.86;43.07
37832;BME280;23671;38.090;-122.570;2023-07-16T09:45:56;100937.47;;;21.84;42.92
37832;BME280;23671;38.090;-122.570;2023-07-16T09:48:24;100938.00;;;21.80;42.89
37832;BME280;23671;38.090;-122.570;2023-07-16T09:50:52;100938.56;;;21.75;43.02
37832;BME280;23671;38.090;-122.570;2023-07-16T09:53:20;100936.88;;;21.74;43.17
37832;BME280;23671;38.090;-122.570;2023-07-16T09:55:49;100933.09;;;21.68;43.18
37832;BME280;23671;38.090;-122.570;2023-07-16T09:58:18;100935.16;;;21.66;43.26
37832;BME280;23671;38.090;-122.570;2023-07-16T10:00:46;100937.00;;;21.66;43.31
37832;BME280;23671;38.090;-122.570;2023-07-16T10:03:15;100928.28;;;21.64;43.18
37832;BME280;23671;38.090;-122.570;2023-07-16T10:05:44;100923.66;;;21.58;43.29
37832;BME280;23671;38.090;-122.570;2023-07-16T10:08:19;100924.03;;;21.55;43.23
37832;BME280;23671;38.090;-122.570;2023-07-16T10:10:54;100920.06;;;21.51;43.38
37832;BME280;23671;38.090;-122.570;2023-07-16T10:13:27;100925.81;;;21.48;43.29
37832;BME280;23671;38.090;-122.570;2023-07-16T10:15:58;100932.38;;;21.45;43.59
37832;BME280;23671;38.090;-122.570;2023-07-16T10:18:31;100924.88;;;21.41;43.50
37832;BME280;23671;38.090;-122.570;2023-07-16T10:21:06;100933.78;;;21.41;43.54
37832;BME280;23671;38.090;-122.570;2023-07-16T10:23:44;100928.31;;;21.35;43.48
37832;BME280;23671;38.090;-122.570;2023-07-16T10:26:15;100920.63;;;21.32;43.60
37832;BME280;23671;38.090;-122.570;2023-07-16T10:28:42;100928.03;;;21.30;43.51
37832;BME280;23671;38.090;-122.570;2023-07-16T10:31:24;100922.22;;;21.26;43.27
37832;BME280;23671;38.090;-122.570;2023-07-16T10:34:02;100924.06;;;21.26;43.62
37832;BME280;23671;38.090;-122.570;2023-07-16T10:36:41;100915.53;;;21.22;43.49
37832;BME280;23671;38.090;-122.570;2023-07-16T10:39:09;100916.09;;;21.18;43.58
37832;BME280;23671;38.090;-122.570;2023-07-16T10:41:36;100920.00;;;21.15;43.76
37832;BME280;23671;38.090;-122.570;2023-07-16T10:44:04;100918.69;;;21.11;43.61
37832;BME280;23671;38.090;-122.570;2023-07-16T10:46:32;100921.72;;;21.08;43.83
37832;BME280;23671;38.090;-122.570;2023-07-16T10:48:59;100926.25;;;21.08;43.73
37832;BME280;23671;38.090;-122.570;2023-07-16T10:51:27;100923.28;;;21.03;43.88
37832;BME280;23671;38.090;-122.570;2023-07-16T10:53:56;100924.47;;;21.00;43.75
37832;BME280;23671;38.090;-122.570;2023-07-16T10:56:23;100924.00;;;20.97;43.89
37832;BME280;23671;38.090;-122.570;2023-07-16T10:58:50;100921.50;;;20.95;43.74
37832;BME280;23671;38.090;-122.570;2023-07-16T11:01:17;100926.22;;;20.93;43.86
37832;BME280;23671;38.090;-122.570;2023-07-16T11:03:44;100920.38;;;20.90;43.88
37832;BME280;23671;38.090;-122.570;2023-07-16T11:06:12;100906.66;;;20.84;43.77
37832;BME280;23671;38.090;-122.570;2023-07-16T11:08:41;100915.09;;;20.81;43.84
37832;BME280;23671;38.090;-122.570;2023-07-16T11:11:08;100924.19;;;20.80;44.04
37832;BME280;23671;38.090;-122.570;2023-07-16T11:13:35;100914.81;;;20.76;44.08
37832;BME280;23671;38.090;-122.570;2023-07-16T11:16:10;100913.13;;;20.75;44.17
37832;BME280;23671;38.090;-122.570;2023-07-16T11:18:37;100911.81;;;20.71;43.97
37832;BME280;23671;38.090;-122.570;2023-07-16T11:21:04;100912.22;;;20.68;44.00
37832;BME280;23671;38.090;-122.570;2023-07-16T11:23:34;100914.03;;;20.68;44.10
37832;BME280;23671;38.090;-122.570;2023-07-16T11:26:03;100910.06;;;20.64;44.05
37832;BME280;23671;38.090;-122.570;2023-07-16T11:28:42;100910.25;;;20.62;44.03
37832;BME280;23671;38.090;-122.570;2023-07-16T11:31:17;100903.75;;;20.57;44.17
37832;BME280;23671;38.090;-122.570;2023-07-16T11:33:47;100910.50;;;20.53;44.05
37832;BME280;23671;38.090;-122.570;2023-07-16T11:36:16;100914.19;;;20.52;43.99
37832;BME280;23671;38.090;-122.570;2023-07-16T11:38:46;100903.34;;;20.45;44.18
37832;BME280;23671;38.090;-122.570;2023-07-16T11:41:14;100900.66;;;20.45;44.10
37832;BME280;23671;38.090;-122.570;2023-07-16T11:43:46;100905.72;;;20.40;44.13
37832;BME280;23671;38.090;-122.570;2023-07-16T11:46:17;100903.41;;;20.37;44.36
37832;BME280;23671;38.090;-122.570;2023-07-16T11:48:44;100902.94;;;20.34;44.36
37832;BME280;23671;38.090;-122.570;2023-07-16T11:51:11;100904.13;;;20.31;44.35
37832;BME280;23671;38.090;-122.570;2023-07-16T11:53:38;100908.66;;;20.31;44.32
37832;BME280;23671;38.090;-122.570;2023-07-16T11:56:05;100903.28;;;20.31;44.34
37832;BME280;23671;38.090;-122.570;2023-07-16T11:58:32;100900.69;;;20.23;44.55
37832;BME280;23671;38.090;-122.570;2023-07-16T12:00:59;100909.56;;;20.23;44.44
37832;BME280;23671;38.090;-122.570;2023-07-16T12:03:26;100913.44;;;20.21;44.56
37832;BME280;23671;38.090;-122.570;2023-07-16T12:05:53;100912.09;;;20.17;44.53
37832;BME280;23671;38.090;-122.570;2023-07-16T12:08:20;100911.59;;;20.13;44.56
37832;BME280;23671;38.090;-122.570;2023-07-16T12:10:47;100922.69;;;20.10;44.66
37832;BME280;23671;38.090;-122.570;2023-07-16T12:13:14;100921.69;;;20.11;44.63
37832;BME280;23671;38.090;-122.570;2023-07-16T12:15:41;100918.50;;;20.08;44.40
37832;BME280;23671;38.090;-122.570;2023-07-16T12:18:08;100923.38;;;20.04;44.63
37832;BME280;23671;38.090;-122.570;2023-07-16T12:20:36;100915.91;;;20.00;44.65
37832;BME280;23671;38.090;-122.570;2023-07-16T12:23:03;100919.56;;;19.99;44.61
37832;BME280;23671;38.090;-122.570;2023-07-16T12:25:30;100921.59;;;19.97;44.73
37832;BME280;23671;38.090;-122.570;2023-07-16T12:27:57;100918.06;;;19.96;44.55
37832;BME280;23671;38.090;-122.570;2023-07-16T12:30:25;100920.47;;;19.91;44.78
37832;BME280;23671;38.090;-122.570;2023-07-16T12:32:52;100920.00;;;19.87;44.69
37832;BME280;23671;38.090;-122.570;2023-07-16T12:35:19;100930.03;;;19.85;44.81
37832;BME280;23671;38.090;-122.570;2023-07-16T12:37:46;100922.53;;;19.81;44.79
37832;BME280;23671;38.090;-122.570;2023-07-16T12:40:13;100913.63;;;19.80;44.87